sensor_id;sensor_type;location;lat;lon;timestamp;pressure;altitude;pressure_sealevel;temperature;humidity
20156;BME280;10238;49.556;10.956;2022-08-05T00:01:32;97851.16;;;21.56;77.98
20156;BME280;10238;49.556;10.956;2022-08-05T00:04:03;97849.16;;;21.52;77.53
20156;BME280;10238;49.556;10.956;2022-08-05T00:06:36;97854.19;;;21.48;80.56
20156;BME280;10238;49.556;10.956;2022-08-05T00:09:05;97848.44;;;21.45;79.79
20156;BME280;10238;49.556;10.956;2022-08-05T00:11:42;97854.34;;;21.42;78.49
20156;BME280;10238;49.556;10.956;2022-08-05T00:14:22;97846.91;;;21.37;78.49
20156;BME280;10238;49.556;10.956;2022-08-05T00:16:56;97841.16;;;21.33;81.04
20156;BME280;10238;49.556;10.956;2022-08-05T00:19:28;97846.22;;;21.30;80.09
20156;BME280;10238;49.556;10.956;2022-08-05T00:22:08;97844.22;;;21.25;81.17
20156;BME280;10238;49.556;10.956;2022-08-05T00:24:38;97838.44;;;21.22;81.30
20156;BME280;10238;49.556;10.956;2022-08-05T00:27:09;97836.44;;;21.17;82.43
20156;BME280;10238;49.556;10.956;2022-08-05T00:29:43;97840.69;;;21.13;82.38
20156;BME280;10238;49.556;10.956;2022-08-05T00:32:12;97839.50;;;21.09;81.53
20156;BME280;10238;49.556;10.956;2022-08-05T00:34:44;97833.72;;;21.06;82.40
20156;BME280;10238;49.556;10.956;2022-08-05T00:37:34;97834.44;;;21.01;81.19
20156;BME280;10238;49.556;10.956;2022-08-05T00:40:22;97829.50;;;20.98;80.59
20156;BME280;10238;49.556;10.956;2022-08-05T00:42:57;97841.81;;;20.94;81.70
20156;BME280;10238;49.556;10.956;2022-08-05T00:45:27;97837.69;;;20.92;83.41
20156;BME280;10238;49.556;10.956;2022-08-05T00:48:11;97829.44;;;20.87;83.32
20156;BME280;10238;49.556;10.956;2022-08-05T00:50:43;97825.56;;;20.83;82.77
20156;BME280;10238;49.556;10.956;2022-08-05T00:53:17;97819.78;;;20.79;82.93
20156;BME280;10238;49.556;10.956;2022-08-05T00:56:07;97822.16;;;20.76;82.97
20156;BME280;10238;49.556;10.956;2022-08-05T00:58:36;97823.41;;;20.73;81.63
20156;BME280;10238;49.556;10.956;2022-08-05T01:01:10;97823.06;;;20.70;80.18
20156;BME280;10238;49.556;10.956;2022-08-05T01:03:40;97814.38;;;20.68;80.77
20156;BME280;10238;49.556;10.956;2022-08-05T01:06:16;97814.81;;;20.65;82.75
20156;BME280;10238;49.556;10.956;2022-08-05T01:08:47;97815.06;;;20.63;85.63
20156;BME280;10238;49.556;10.956;2022-08-05T01:11:21;97811.19;;;20.59;84.75
20156;BME280;10238;49.556;10.956;2022-08-05T01:14:12;97808.34;;;20.54;82.34
20156;BME280;10238;49.556;10.956;2022-08-05T01:16:48;97805.91;;;20.53;85.57
20156;BME280;10238;49.556;10.956;2022-08-05T01:19:33;97808.44;;;20.48;86.33
20156;BME280;10238;49.556;10.956;2022-08-05T01:23:10;97809.13;;;20.43;86.12
20156;BME280;10238;49.556;10.956;2022-08-05T01:26:13;97806.06;;;20.40;89.79
20156;BME280;10238;49.556;10.956;2022-08-05T01:28:53;97809.22;;;20.37;90.39
20156;BME280;10238;49.556;10.956;2022-08-05T01:31:36;97807.00;;;20.34;89.83
20156;BME280;10238;49.556;10.956;2022-08-05T01:34:26;97796.91;;;20.29;89.95
20156;BME280;10238;49.556;10.956;2022-08-05T01:37:17;97801.09;;;20.25;88.65
20156;BME280;10238;49.556;10.956;2022-08-05T01:40:04;97799.66;;;20.23;88.66
20156;BME280;10238;49.556;10.956;2022-08-05T01:42:39;97803.44;;;20.22;90.34
20156;BME280;10238;49.556;10.956;2022-08-05T01:45:15;97802.47;;;20.16;89.22
20156;BME280;10238;49.556;10.956;2022-08-05T01:47:50;97812.66;;;20.14;89.95
20156;BME280;10238;49.556;10.956;2022-08-05T01:50:28;97813.09;;;20.11;86.32
20156;BME280;10238;49.556;10.956;2022-08-05T01:53:02;97816.00;;;20.10;88.35
20156;BME280;10238;49.556;10.956;2022-08-05T01:55:36;97811.91;;;20.07;87.90
20156;BME280;10238;49.556;10.956;2022-08-05T01:58:09;97815.88;;;20.05;90.30
20156;BME280;10238;49.556;10.956;2022-08-05T02:00:50;97816.31;;;20.02;91.81
20156;BME280;10238;49.556;10.956;2022-08-05T02:03:24;97818.66;;;19.98;90.18
20156;BME280;10238;49.556;10.956;2022-08-05T02:06:02;97818.88;;;19.97;91.63
20156;BME280;10238;49.556;10.956;2022-08-05T02:08:53;97819.94;;;19.96;94.95
20156;BME280;10238;49.556;10.956;2022-08-05T02:11:36;97823.09;;;19.93;96.11
20156;BME280;10238;49.556;10.956;2022-08-05T02:14:20;97822.50;;;19.91;98.53
20156;BME280;10238;49.556;10.956;2022-08-05T02:17:04;97819.63;;;19.86;99.40
20156;BME280;10238;49.556;10.956;2022-08-05T02:19:50;97814.69;;;19.83;98.32
20156;BME280;10238;49.556;10.956;2022-08-05T02:22:27;97813.50;;;19.79;96.88
20156;BME280;10238;49.556;10.956;2022-08-05T02:25:04;97821.00;;;19.77;97.83
20156;BME280;10238;49.556;10.956;2022-08-05T02:27:37;97817.94;;;19.73;93.86
20156;BME280;10238;49.556;10.956;2022-08-05T02:30:39;97818.16;;;19.72;95.09
20156;BME280;10238;49.556;10.956;2022-08-05T02:33:24;97813.22;;;19.69;94.40
20156;BME280;10238;49.556;10.956;2022-08-05T02:36:10;97815.28;;;19.67;96.14
20156;BME280;10238;49.556;10.956;2022-08-05T02:38:46;97817.41;;;19.65;97.95
20156;BME280;10238;49.556;10.956;2022-08-05T02:41:23;97818.69;;;19.62;99.02
20156;BME280;10238;49.556;10.956;2022-08-05T02:44:07;97810.44;;;19.57;94.90
20156;BME280;10238;49.556;10.956;2022-08-05T02:46:44;97812.31;;;19.57;98.36
20156;BME280;10238;49.556;10.956;2022-08-05T02:49:33;97801.16;;;19.53;98.18
20156;BME280;10238;49.556;10.956;2022-08-05T02:52:10;97803.47;;;19.50;98.91
20156;BME280;10238;49.556;10.956;2022-08-05T02:54:53;97803.91;;;19.47;96.33
20156;BME280;10238;49.556;10.956;2022-08-05T02:57:24;97808.72;;;19.45;95.15
20156;BME280;10238;49.556;10.956;2022-08-05T03:00:15;97804.81;;;19.41;92.72
20156;BME280;10238;49.556;10.956;2022-08-05T03:02:47;97799.41;;;19.41;95.21
20156;BME280;10238;49.556;10.956;2022-08-05T03:05:19;97793.66;;;19.37;95.27
20156;BME280;10238;49.556;10.956;2022-08-05T03:08:09;97803.63;;;19.37;93.65
20156;BME280;10238;49.556;10.956;2022-08-05T03:10:41;97883.91;;;19.53;92.09
20156;BME280;10238;49.556;10.956;2022-08-05T03:13:31;97851.78;;;19.87;97.24
20156;BME280;10238;49.556;10.956;2022-08-05T03:16:20;97873.28;;;20.30;100.00
20156;BME280;10238;49.556;10.956;2022-08-05T03:18:49;97854.34;;;20.48;100.00
20156;BME280;10238;49.556;10.956;2022-08-05T03:21:20;97847.69;;;20.62;100.00
20156;BME280;10238;49.556;10.956;2022-08-05T03:23:56;97849.94;;;20.65;100.00
20156;BME280;10238;49.556;10.956;2022-08-05T03:26:26;97846.66;;;20.63;100.00
20156;BME280;10238;49.556;10.956;2022-08-05T03:28:59;97843.38;;;20.61;100.00
20156;BME280;10238;49.556;10.956;2022-08-05T03:31:29;97855.69;;;20.57;100.00
20156;BME280;10238;49.556;10.956;2022-08-05T03:34:18;97852.50;;;20.48;100.00
20156;BME280;10238;49.556;10.956;2022-08-05T03:36:52;97853.84;;;20.39;98.44
20156;BME280;10238;49.556;10.956;2022-08-05T03:39:21;97855.13;;;20.37;100.00
20156;BME280;10238;49.556;10.956;2022-08-05T03:41:54;97858.88;;;20.36;100.00
20156;BME280;10238;49.556;10.956;2022-08-05T03:44:24;97858.44;;;20.39;100.00
20156;BME280;10238;49.556;10.956;2022-08-05T03:46:55;97856.78;;;20.38;100.00
20156;BME280;10238;49.556;10.956;2022-08-05T03:49:24;97849.50;;;20.38;100.00
20156;BME280;10238;49.556;10.956;2022-08-05T03:52:28;97842.69;;;20.36;100.00
20156;BME280;10238;49.556;10.956;2022-08-05T03:55:25;97852.06;;;20.33;100.00
20156;BME280;10238;49.556;10.956;2022-08-05T03:58:19;97863.09;;;20.32;100.00
20156;BME280;10238;49.556;10.956;2022-08-05T04:00:58;97875.75;;;20.31;100.00
20156;BME280;10238;49.556;10.956;2022-08-05T04:03:33;97872.47;;;20.29;100.00
20156;BME280;10238;49.556;10.956;2022-08-05T04:06:06;97868.94;;;20.29;100.00
20156;BME280;10238;49.556;10.956;2022-08-05T04:08:37;97865.06;;;20.25;100.00
20156;BME280;10238;49.556;10.956;2022-08-05T04:11:07;97864.63;;;20.28;100.00
20156;BME280;10238;49.556;10.956;2022-08-05T04:13:39;97861.31;;;20.26;100.00
20156;BME280;10238;49.556;10.956;2022-08-05T04:16:18;97859.66;;;20.25;100.00
20156;BME280;10238;49.556;10.956;2022-08-05T04:18:55;97862.94;;;20.27;99.98
20156;BME280;10238;49.556;10.956;2022-08-05T04:21:29;97860.84;;;20.29;100.00
20156;BME280;10238;49.556;10.956;2022-08-05T04:24:20;97866.47;;;20.27;95.84
20156;BME280;10238;49.556;10.956;2022-08-05T04:26:49;97861.47;;;20.31;100.00
20156;BME280;10238;49.556;10.956;2022-08-05T04:29:18;97858.31;;;20.34;100.00
20156;BME280;10238;49.556;10.956;2022-08-05T04:31:49;97872.84;;;20.33;95.80
20156;BME280;10238;49.556;10.956;2022-08-05T04:34:18;97869.69;;;20.36;93.45
20156;BME280;10238;49.556;10.956;2022-08-05T04:37:02;97873.78;;;20.38;93.65
20156;BME280;10238;49.556;10.956;2022-08-05T04:39:33;97876.25;;;20.40;90.99
20156;BME280;10238;49.556;10.956;2022-08-05T04:42:03;97870.19;;;20.44;100.00
20156;BME280;10238;49.556;10.956;2022-08-05T04:44:33;97861.84;;;20.46;100.00
20156;BME280;10238;49.556;10.956;2022-08-05T04:47:03;97868.09;;;20.46;97.80
20156;BME280;10238;49.556;10.956;2022-08-05T04:49:36;97876.19;;;20.46;100.00
20156;BME280;10238;49.556;10.956;2022-08-05T04:52:25;97878.50;;;20.43;94.41
20156;BME280;10238;49.556;10.956;2022-08-05T04:54:56;97879.72;;;20.47;95.54
20156;BME280;10238;49.556;10.956;2022-08-05T04:57:43;97874.91;;;20.49;93.86
20156;BME280;10238;49.556;10.956;2022-08-05T05:00:15;97888.56;;;20.54;91.40
20156;BME280;10238;49.556;10.956;2022-08-05T05:02:44;97891.38;;;20.59;91.60
20156;BME280;10238;49.556;10.956;2022-08-05T05:05:13;97890.91;;;20.62;90.90
20156;BME280;10238;49.556;10.956;2022-08-05T05:07:59;97895.88;;;20.65;88.83
20156;BME280;10238;49.556;10.956;2022-08-05T05:10:32;97906.22;;;20.68;89.23
20156;BME280;10238;49.556;10.956;2022-08-05T05:13:08;97912.00;;;20.71;89.41
20156;BME280;10238;49.556;10.956;2022-08-05T05:15:40;97914.56;;;20.78;89.05
20156;BME280;10238;49.556;10.956;2022-08-05T05:18:28;97926.13;;;20.85;88.15
20156;BME280;10238;49.556;10.956;2022-08-05T05:21:01;97938.69;;;20.91;87.26
20156;BME280;10238;49.556;10.956;2022-08-05T05:23:32;97951.72;;;21.00;88.04
20156;BME280;10238;49.556;10.956;2022-08-05T05:26:22;97960.91;;;21.11;87.47
20156;BME280;10238;49.556;10.956;2022-08-05T05:29:00;97952.00;;;21.22;88.46
20156;BME280;10238;49.556;10.956;2022-08-05T05:31:41;97938.25;;;21.35;88.50
20156;BME280;10238;49.556;10.956;2022-08-05T05:34:13;97927.47;;;21.47;88.64
20156;BME280;10238;49.556;10.956;2022-08-05T05:36:42;97928.06;;;21.60;86.35
20156;BME280;10238;49.556;10.956;2022-08-05T05:39:13;97922.44;;;21.73;85.15
20156;BME280;10238;49.556;10.956;2022-08-05T05:41:47;97921.72;;;21.89;89.60
20156;BME280;10238;49.556;10.956;2022-08-05T05:44:21;97925.50;;;22.00;84.10
20156;BME280;10238;49.556;10.956;2022-08-05T05:47:04;97940.09;;;22.10;84.34
20156;BME280;10238;49.556;10.956;2022-08-05T05:49:48;97938.19;;;22.22;84.15
20156;BME280;10238;49.556;10.956;2022-08-05T05:52:28;97942.84;;;22.38;84.10
20156;BME280;10238;49.556;10.956;2022-08-05T05:55:07;97960.50;;;22.52;85.25
20156;BME280;10238;49.556;10.956;2022-08-05T05:57:44;97958.44;;;22.71;86.74
20156;BME280;10238;49.556;10.956;2022-08-05T06:00:22;97957.44;;;22.88;83.16
20156;BME280;10238;49.556;10.956;2022-08-05T06:03:00;97970.06;;;23.11;84.47
20156;BME280;10238;49.556;10.956;2022-08-05T06:05:29;97995.59;;;23.26;81.87
20156;BME280;10238;49.556;10.956;2022-08-05T06:07:59;98035.44;;;23.38;80.55
20156;BME280;10238;49.556;10.956;2022-08-05T06:10:30;98046.81;;;23.51;79.28
20156;BME280;10238;49.556;10.956;2022-08-05T06:13:05;98037.50;;;23.64;78.61
20156;BME280;10238;49.556;10.956;2022-08-05T06:15:35;98046.97;;;23.78;79.75
20156;BME280;10238;49.556;10.956;2022-08-05T06:18:24;98046.34;;;23.87;79.51
20156;BME280;10238;49.556;10.956;2022-08-05T06:20:58;98051.38;;;23.95;79.02
20156;BME280;10238;49.556;10.956;2022-08-05T06:23:28;98053.94;;;24.02;77.53
20156;BME280;10238;49.556;10.956;2022-08-05T06:26:15;98054.59;;;24.09;79.88
20156;BME280;10238;49.556;10.956;2022-08-05T06:28:49;98065.56;;;24.14;77.98
20156;BME280;10238;49.556;10.956;2022-08-05T06:31:18;98064.56;;;24.20;77.76
20156;BME280;10238;49.556;10.956;2022-08-05T06:33:49;98063.00;;;24.24;78.71
20156;BME280;10238;49.556;10.956;2022-08-05T06:36:35;98057.84;;;24.27;77.71
20156;BME280;10238;49.556;10.956;2022-08-05T06:39:25;98077.22;;;24.31;76.69
20156;BME280;10238;49.556;10.956;2022-08-05T06:41:55;98091.16;;;24.34;77.20
20156;BME280;10238;49.556;10.956;2022-08-05T06:44:27;98088.19;;;24.36;78.50
20156;BME280;10238;49.556;10.956;2022-08-05T06:46:57;98091.19;;;24.39;77.76
20156;BME280;10238;49.556;10.956;2022-08-05T06:49:28;98094.25;;;24.43;78.71
20156;BME280;10238;49.556;10.956;2022-08-05T06:52:18;98084.88;;;24.50;78.18
20156;BME280;10238;49.556;10.956;2022-08-05T06:55:05;98098.34;;;24.62;78.19
20156;BME280;10238;49.556;10.956;2022-08-05T06:57:35;98092.88;;;24.78;80.33
20156;BME280;10238;49.556;10.956;2022-08-05T07:00:26;98093.16;;;24.98;77.07
20156;BME280;10238;49.556;10.956;2022-08-05T07:02:56;98109.50;;;25.20;79.22
20156;BME280;10238;49.556;10.956;2022-08-05T07:05:25;98106.53;;;25.43;75.97
20156;BME280;10238;49.556;10.956;2022-08-05T07:08:04;98116.31;;;25.66;76.64
20156;BME280;10238;49.556;10.956;2022-08-05T07:10:38;98109.19;;;25.91;73.92
20156;BME280;10238;49.556;10.956;2022-08-05T07:13:21;98116.03;;;26.20;73.04
20156;BME280;10238;49.556;10.956;2022-08-05T07:16:28;98115.75;;;26.53;70.56
20156;BME280;10238;49.556;10.956;2022-08-05T07:19:35;98117.13;;;26.92;68.91
20156;BME280;10238;49.556;10.956;2022-08-05T07:22:24;98113.50;;;27.23;68.58
20156;BME280;10238;49.556;10.956;2022-08-05T07:24:58;98105.94;;;27.51;66.52
20156;BME280;10238;49.556;10.956;2022-08-05T07:27:48;98109.31;;;27.88;64.11
20156;BME280;10238;49.556;10.956;2022-08-05T07:30:30;98110.47;;;28.22;62.39
20156;BME280;10238;49.556;10.956;2022-08-05T07:33:04;98107.72;;;28.52;61.00
20156;BME280;10238;49.556;10.956;2022-08-05T07:35:38;98112.06;;;28.83;60.39
20156;BME280;10238;49.556;10.956;2022-08-05T07:38:27;98115.00;;;29.16;59.19
20156;BME280;10238;49.556;10.956;2022-08-05T07:41:05;98122.22;;;29.51;57.51
20156;BME280;10238;49.556;10.956;2022-08-05T07:43:56;98128.09;;;29.88;56.78
20156;BME280;10238;49.556;10.956;2022-08-05T07:46:28;98130.38;;;30.20;54.70
20156;BME280;10238;49.556;10.956;2022-08-05T07:49:01;98126.09;;;30.37;54.32
20156;BME280;10238;49.556;10.956;2022-08-05T07:51:36;98128.59;;;30.67;53.44
20156;BME280;10238;49.556;10.956;2022-08-05T07:54:22;98135.44;;;30.98;53.46
20156;BME280;10238;49.556;10.956;2022-08-05T07:57:00;98134.75;;;31.11;51.92
20156;BME280;10238;49.556;10.956;2022-08-05T07:59:50;98128.56;;;31.25;51.75
20156;BME280;10238;49.556;10.956;2022-08-05T08:02:24;98130.63;;;31.38;51.82
20156;BME280;10238;49.556;10.956;2022-08-05T08:05:15;98114.41;;;31.60;50.61
20156;BME280;10238;49.556;10.956;2022-08-05T08:07:45;98106.00;;;31.70;49.90
20156;BME280;10238;49.556;10.956;2022-08-05T08:10:27;98112.44;;;31.84;50.20
20156;BME280;10238;49.556;10.956;2022-08-05T08:12:57;98107.31;;;31.96;48.80
20156;BME280;10238;49.556;10.956;2022-08-05T08:15:28;98116.69;;;31.95;48.68
20156;BME280;10238;49.556;10.956;2022-08-05T08:18:17;98113.75;;;31.86;49.10
20156;BME280;10238;49.556;10.956;2022-08-05T08:20:49;98127.84;;;31.85;48.29
20156;BME280;10238;49.556;10.956;2022-08-05T08:23:30;98130.78;;;31.88;48.92
20156;BME280;10238;49.556;10.956;2022-08-05T08:26:20;98129.25;;;32.01;48.57
20156;BME280;10238;49.556;10.956;2022-08-05T08:28:58;98126.34;;;32.11;48.44
20156;BME280;10238;49.556;10.956;2022-08-05T08:31:47;98123.44;;;32.21;47.72
20156;BME280;10238;49.556;10.956;2022-08-05T08:34:17;98116.63;;;32.32;47.98
20156;BME280;10238;49.556;10.956;2022-08-05T08:37:01;98127.66;;;32.50;47.77
20156;BME280;10238;49.556;10.956;2022-08-05T08:39:32;98123.06;;;32.59;47.87
20156;BME280;10238;49.556;10.956;2022-08-05T08:42:07;98123.75;;;32.83;46.90
20156;BME280;10238;49.556;10.956;2022-08-05T08:44:58;98123.41;;;33.17;46.65
20156;BME280;10238;49.556;10.956;2022-08-05T08:47:50;98126.00;;;33.54;45.46
20156;BME280;10238;49.556;10.956;2022-08-05T08:50:42;98129.41;;;33.87;45.20
20156;BME280;10238;49.556;10.956;2022-08-05T08:53:36;98135.84;;;33.96;44.12
20156;BME280;10238;49.556;10.956;2022-08-05T08:56:12;98146.16;;;34.04;43.84
20156;BME280;10238;49.556;10.956;2022-08-05T08:58:42;98142.56;;;34.03;44.10
20156;BME280;10238;49.556;10.956;2022-08-05T09:01:16;98141.25;;;34.01;43.53
20156;BME280;10238;49.556;10.956;2022-08-05T09:03:48;98136.34;;;33.98;44.50
20156;BME280;10238;49.556;10.956;2022-08-05T09:06:25;98135.03;;;33.95;44.39
20156;BME280;10238;49.556;10.956;2022-08-05T09:09:00;98129.38;;;34.00;44.36
20156;BME280;10238;49.556;10.956;2022-08-05T09:11:32;98126.00;;;34.03;43.40
20156;BME280;10238;49.556;10.956;2022-08-05T09:14:20;98122.66;;;33.93;44.14
20156;BME280;10238;49.556;10.956;2022-08-05T09:17:11;98124.09;;;33.90;43.00
20156;BME280;10238;49.556;10.956;2022-08-05T09:20:04;98123.59;;;33.88;42.93
20156;BME280;10238;49.556;10.956;2022-08-05T09:23:04;98130.91;;;34.06;43.55
20156;BME280;10238;49.556;10.956;2022-08-05T09:25:39;98132.28;;;34.17;41.88
20156;BME280;10238;49.556;10.956;2022-08-05T09:28:28;98128.16;;;34.28;41.48
20156;BME280;10238;49.556;10.956;2022-08-05T09:31:03;98123.41;;;34.42;41.82
20156;BME280;10238;49.556;10.956;2022-08-05T09:33:54;98110.22;;;34.61;41.58
20156;BME280;10238;49.556;10.956;2022-08-05T09:36:40;98112.56;;;34.90;42.15
20156;BME280;10238;49.556;10.956;2022-08-05T09:39:22;98101.91;;;35.14;39.58
20156;BME280;10238;49.556;10.956;2022-08-05T09:42:14;98100.56;;;35.34;38.52
20156;BME280;10238;49.556;10.956;2022-08-05T09:44:55;98100.94;;;35.58;37.01
20156;BME280;10238;49.556;10.956;2022-08-05T09:47:44;98096.13;;;35.80;38.20
20156;BME280;10238;49.556;10.956;2022-08-05T09:50:34;98085.22;;;36.09;38.24
20156;BME280;10238;49.556;10.956;2022-08-05T09:53:10;98088.03;;;36.35;36.80
20156;BME280;10238;49.556;10.956;2022-08-05T09:55:54;98088.47;;;36.62;36.01
20156;BME280;10238;49.556;10.956;2022-08-05T09:58:41;98078.31;;;36.83;35.46
20156;BME280;10238;49.556;10.956;2022-08-05T10:01:16;98072.19;;;37.07;35.23
20156;BME280;10238;49.556;10.956;2022-08-05T10:04:02;98068.22;;;37.25;34.36
20156;BME280;10238;49.556;10.956;2022-08-05T10:06:38;98064.22;;;37.43;33.46
20156;BME280;10238;49.556;10.956;2022-08-05T10:09:21;98067.66;;;37.69;32.32
20156;BME280;10238;49.556;10.956;2022-08-05T10:12:07;98072.81;;;37.79;33.45
20156;BME280;10238;49.556;10.956;2022-08-05T10:15:13;98069.84;;;37.84;32.76
20156;BME280;10238;49.556;10.956;2022-08-05T10:18:07;98064.88;;;37.90;32.71
20156;BME280;10238;49.556;10.956;2022-08-05T10:20:39;98068.06;;;38.00;32.30
20156;BME280;10238;49.556;10.956;2022-08-05T10:23:16;98069.13;;;38.16;32.58
20156;BME280;10238;49.556;10.956;2022-08-05T10:26:07;98058.31;;;38.35;31.95
20156;BME280;10238;49.556;10.956;2022-08-05T10:28:42;98072.22;;;38.47;30.77
20156;BME280;10238;49.556;10.956;2022-08-05T10:31:16;98074.16;;;38.55;31.61
20156;BME280;10238;49.556;10.956;2022-08-05T10:34:05;98068.84;;;38.62;31.15
20156;BME280;10238;49.556;10.956;2022-08-05T10:36:36;98054.97;;;38.74;30.83
20156;BME280;10238;49.556;10.956;2022-08-05T10:39:09;98061.94;;;38.93;31.47
20156;BME280;10238;49.556;10.956;2022-08-05T10:42:10;98057.13;;;39.14;31.32
20156;BME280;10238;49.556;10.956;2022-08-05T10:44:45;98047.38;;;39.32;29.21
20156;BME280;10238;49.556;10.956;2022-08-05T10:47:19;98044.25;;;39.33;30.29
20156;BME280;10238;49.556;10.956;2022-08-05T10:50:02;98048.06;;;39.53;30.90
20156;BME280;10238;49.556;10.956;2022-08-05T10:52:52;98049.47;;;39.59;30.02
20156;BME280;10238;49.556;10.956;2022-08-05T10:55:26;98045.06;;;39.58;29.70
20156;BME280;10238;49.556;10.956;2022-08-05T10:58:06;98051.13;;;39.48;30.21
20156;BME280;10238;49.556;10.956;2022-08-05T11:00:45;98034.50;;;39.63;30.37
20156;BME280;10238;49.556;10.956;2022-08-05T11:03:23;98032.38;;;39.84;29.91
20156;BME280;10238;49.556;10.956;2022-08-05T11:06:05;98036.91;;;39.89;30.31
20156;BME280;10238;49.556;10.956;2022-08-05T11:08:35;98039.88;;;39.96;29.58
20156;BME280;10238;49.556;10.956;2022-08-05T11:11:32;98045.63;;;40.15;30.62
20156;BME280;10238;49.556;10.956;2022-08-05T11:14:24;98033.75;;;40.30;29.35
20156;BME280;10238;49.556;10.956;2022-08-05T11:17:35;98046.72;;;40.38;30.19
20156;BME280;10238;49.556;10.956;2022-08-05T11:20:39;98032.91;;;40.57;30.14
20156;BME280;10238;49.556;10.956;2022-08-05T11:23:31;98037.91;;;40.79;30.13
20156;BME280;10238;49.556;10.956;2022-08-05T11:26:21;98040.88;;;40.86;29.07
20156;BME280;10238;49.556;10.956;2022-08-05T11:29:00;98031.16;;;40.96;28.36
20156;BME280;10238;49.556;10.956;2022-08-05T11:31:42;98037.38;;;41.05;27.92
20156;BME280;10238;49.556;10.956;2022-08-05T11:34:36;98030.28;;;41.07;28.62
20156;BME280;10238;49.556;10.956;2022-08-05T11:37:07;98030.66;;;40.62;28.42
20156;BME280;10238;49.556;10.956;2022-08-05T11:39:56;98026.41;;;40.53;30.33
20156;BME280;10238;49.556;10.956;2022-08-05T11:42:32;98038.47;;;40.57;29.42
20156;BME280;10238;49.556;10.956;2022-08-05T11:45:08;98029.84;;;40.62;29.37
20156;BME280;10238;49.556;10.956;2022-08-05T11:47:53;98031.53;;;40.94;29.20
20156;BME280;10238;49.556;10.956;2022-08-05T11:50:23;98016.97;;;41.16;29.09
20156;BME280;10238;49.556;10.956;2022-08-05T11:52:55;98024.88;;;41.14;27.98
20156;BME280;10238;49.556;10.956;2022-08-05T11:55:25;98028.81;;;40.98;28.08
20156;BME280;10238;49.556;10.956;2022-08-05T11:58:03;98031.59;;;40.82;28.84
20156;BME280;10238;49.556;10.956;2022-08-05T12:00:39;98030.25;;;40.76;29.03
20156;BME280;10238;49.556;10.956;2022-08-05T12:03:20;98032.25;;;40.91;28.46
20156;BME280;10238;49.556;10.956;2022-08-05T12:06:02;98030.50;;;41.02;28.42
20156;BME280;10238;49.556;10.956;2022-08-05T12:08:39;98032.78;;;41.12;28.38
20156;BME280;10238;49.556;10.956;2022-08-05T12:11:19;98020.31;;;41.06;28.87
20156;BME280;10238;49.556;10.956;2022-08-05T12:13:55;98030.44;;;40.83;29.88
20156;BME280;10238;49.556;10.956;2022-08-05T12:16:27;98040.41;;;40.69;28.23
20156;BME280;10238;49.556;10.956;2022-08-05T12:18:58;98034.66;;;40.77;27.16
20156;BME280;10238;49.556;10.956;2022-08-05T12:21:30;98027.72;;;41.02;28.70
20156;BME280;10238;49.556;10.956;2022-08-05T12:24:09;98026.47;;;41.31;27.73
20156;BME280;10238;49.556;10.956;2022-08-05T12:26:40;98018.88;;;41.47;27.72
20156;BME280;10238;49.556;10.956;2022-08-05T12:29:12;98024.72;;;41.42;27.63
20156;BME280;10238;49.556;10.956;2022-08-05T12:31:50;98017.53;;;41.41;27.10
20156;BME280;10238;49.556;10.956;2022-08-05T12:34:22;98021.41;;;41.36;28.16
20156;BME280;10238;49.556;10.956;2022-08-05T12:36:56;98020.81;;;41.27;27.32
20156;BME280;10238;49.556;10.956;2022-08-05T12:39:27;98013.00;;;41.17;27.84
20156;BME280;10238;49.556;10.956;2022-08-05T12:42:09;98011.09;;;41.21;29.04
20156;BME280;10238;49.556;10.956;2022-08-05T12:44:42;98008.25;;;41.52;27.33
20156;BME280;10238;49.556;10.956;2022-08-05T12:47:26;98007.06;;;41.69;28.26
20156;BME280;10238;49.556;10.956;2022-08-05T12:49:58;98003.81;;;41.67;26.70
20156;BME280;10238;49.556;10.956;2022-08-05T12:52:34;98013.31;;;41.47;27.16
20156;BME280;10238;49.556;10.956;2022-08-05T12:55:20;98006.81;;;41.58;27.46
20156;BME280;10238;49.556;10.956;2022-08-05T12:57:53;98003.53;;;41.72;26.42
20156;BME280;10238;49.556;10.956;2022-08-05T13:00:44;98001.84;;;41.86;27.34
20156;BME280;10238;49.556;10.956;2022-08-05T13:03:37;97992.44;;;41.94;27.30
20156;BME280;10238;49.556;10.956;2022-08-05T13:06:14;98000.53;;;41.99;26.74
20156;BME280;10238;49.556;10.956;2022-08-05T13:08:45;97996.41;;;42.12;25.93
20156;BME280;10238;49.556;10.956;2022-08-05T13:11:22;98001.28;;;41.96;25.76
20156;BME280;10238;49.556;10.956;2022-08-05T13:14:20;97994.47;;;41.78;26.79
20156;BME280;10238;49.556;10.956;2022-08-05T13:17:06;97993.00;;;41.65;26.29
20156;BME280;10238;49.556;10.956;2022-08-05T13:19:37;97995.06;;;41.68;26.53
20156;BME280;10238;49.556;10.956;2022-08-05T13:22:20;97992.03;;;41.77;26.61
20156;BME280;10238;49.556;10.956;2022-08-05T13:24:57;97990.66;;;41.86;27.87
20156;BME280;10238;49.556;10.956;2022-08-05T13:27:35;97982.75;;;41.88;26.96
20156;BME280;10238;49.556;10.956;2022-08-05T13:30:08;97983.03;;;41.83;26.61
20156;BME280;10238;49.556;10.956;2022-08-05T13:32:57;97976.25;;;41.84;26.35
20156;BME280;10238;49.556;10.956;2022-08-05T13:35:29;97981.59;;;41.89;26.41
20156;BME280;10238;49.556;10.956;2022-08-05T13:38:18;97972.88;;;41.94;25.85
20156;BME280;10238;49.556;10.956;2022-08-05T13:41:01;97975.25;;;41.92;25.93
20156;BME280;10238;49.556;10.956;2022-08-05T13:43:32;97971.84;;;41.83;28.62
20156;BME280;10238;49.556;10.956;2022-08-05T13:46:21;97971.69;;;41.95;27.23
20156;BME280;10238;49.556;10.956;2022-08-05T13:49:10;97961.44;;;41.99;26.48
20156;BME280;10238;49.556;10.956;2022-08-05T13:51:40;97968.50;;;41.93;26.28
20156;BME280;10238;49.556;10.956;2022-08-05T13:54:14;97963.25;;;41.73;26.67